HKNW/WIL METAR and TAF weather

Enter ICAO airport designator
Station Type Date Time Source
HKNW METAR 2021/01/22 07:00 UTC NOAA

HKNW 220700Z 09009KT 9999 FEW012 BKN020 18/16 Q1021


Station Type Date Time Source
HKNW Decoded METAR 2021/01/22 07:00 UTC NOAA

Nairobi / Wilson, Kenya (HKNW) 01-19S 036-49E 1679M
Jan 22, 2021 - 02:00 AM EST / 2021.01.22 0700 UTC
Wind: from the E (090 degrees) at 10 MPH (9 KT):0
Visibility: greater than 7 mile(s):0
Sky conditions: mostly cloudy
Temperature: 64 F (18 C)
Dew Point: 60 F (16 C)
Relative Humidity: 88%
Pressure (altimeter): 30.15 in. Hg (1021 hPa)
ob: HKNW 220700Z 09009KT 9999 FEW012 BKN020 18/16 Q1021
cycle: 7

Station Type Date Time Source
HKNW TAF 2021/01/08 06:09 UTC NOAA

TAF HKNW 080500Z 0806/0906 07015KT 9999 SCT026
BECMG 0820/0823 02005KT

Example: see airport list